»·PEaware :: N448RA KEMT-KSBP

N448RA :: KEMT-KSBP

FLIGHT INFORMATION

Flight Status: Arrived
Operator: Privately registered:
United States
More flights under this callsign
Pilot: Scott M. (16181)
Aircraft: Unknown
(DA62)
More flights by this aircraft type
Origin: KEMT El Monte
United States
Destination: KSBP San Luis Co Regl
United States
More flights between these airports :: More routes between these airports
Route: +
File this flight plan on PilotEdge
Remarks:
Altitude:
(Current/Filed)
8,500ft
Speed:
(Current/Filed)
170kts
Departed: 08-Nov-18 06:00 PM
Arrived: 08-Nov-18 07:01 PM
Distance/Time
Traveled:
146nm/1:00
Distance/Time
To Go:
Arrived

Flight Plot

Page will automatically refresh every two minutes.

Flight plan parsing failed; only flown route is shown


Map Options




Map Legend


Flown Route
Filed Route
Departure Airport
Arrival Airport
Navaid (VOR, NDB)
Fix

Horizontal Profiles

Position Reports

Time Latitude Longitude Heading Altitude Ground
Speed
08-Nov-18 18:02 34.098549 -118.082066 349 1991ft 112kts
08-Nov-18 18:03 34.128861 -118.091134 336 2862ft 113kts
08-Nov-18 18:04 34.153778 -118.114058 320 3725ft 113kts
08-Nov-18 18:05 34.176334 -118.140054 320 4599ft 112kts
08-Nov-18 18:06 34.198017 -118.165504 319 5455ft 110kts
08-Nov-18 18:07 34.219912 -118.191283 320 6333ft 109kts
08-Nov-18 18:08 34.241519 -118.216755 320 7202ft 108kts
08-Nov-18 18:09 34.262968 -118.242045 320 8070ft 107kts
08-Nov-18 18:10 34.285313 -118.268250 320 8625ft 130kts
08-Nov-18 18:11 34.314618 -118.302589 320 8618ft 156kts
08-Nov-18 18:12 34.346431 -118.340116 320 8612ft 160kts
08-Nov-18 18:13 34.378055 -118.377498 320 8615ft 158kts
08-Nov-18 18:14 34.409475 -118.414701 316 8611ft 159kts
08-Nov-18 18:15 34.427663 -118.463139 300 8624ft 161kts
08-Nov-18 18:16 34.445808 -118.512888 300 8619ft 162kts
08-Nov-18 18:17 34.463599 -118.563299 299 8608ft 162kts
08-Nov-18 18:18 34.481186 -118.613644 299 8605ft 162kts
08-Nov-18 18:19 34.498328 -118.662508 299 8600ft 162kts
08-Nov-18 18:20 34.515921 -118.713034 298 8597ft 163kts
08-Nov-18 18:21 34.533578 -118.763903 300 8570ft 165kts
08-Nov-18 18:22 34.551269 -118.815204 299 8558ft 164kts
08-Nov-18 18:23 34.568923 -118.866070 300 8563ft 163kts
08-Nov-18 18:24 34.586460 -118.916816 301 8574ft 163kts
08-Nov-18 18:25 34.603952 -118.967559 302 8576ft 163kts
08-Nov-18 18:26 34.621462 -119.018370 301 8565ft 163kts
08-Nov-18 18:27 34.639419 -119.069249 303 8543ft 163kts
08-Nov-18 18:28 34.657264 -119.119810 302 8536ft 162kts
08-Nov-18 18:29 34.680516 -119.165390 315 8559ft 159kts
08-Nov-18 18:30 34.706576 -119.209145 315 8557ft 160kts
08-Nov-18 18:31 34.731188 -119.250299 315 8560ft 160kts
08-Nov-18 18:32 34.757267 -119.293845 314 8576ft 159kts
08-Nov-18 18:33 34.783185 -119.337157 312 8583ft 157kts
08-Nov-18 18:34 34.803871 -119.371797 312 8586ft 156kts
08-Nov-18 18:35 34.829249 -119.414377 311 8584ft 155kts
08-Nov-18 18:36 34.854497 -119.456818 310 8576ft 153kts
08-Nov-18 18:37 34.879606 -119.499075 310 8567ft 154kts
08-Nov-18 18:38 34.904811 -119.541622 311 8570ft 155kts
08-Nov-18 18:39 34.930072 -119.584309 311 8586ft 156kts
08-Nov-18 18:40 34.955539 -119.627367 312 8596ft 158kts
08-Nov-18 18:41 34.981240 -119.670844 311 8338ft 156kts
08-Nov-18 18:42 35.005970 -119.712934 311 7692ft 150kts
08-Nov-18 18:43 35.030216 -119.754080 311 7061ft 148kts
08-Nov-18 18:44 35.054180 -119.794768 310 6508ft 142kts
08-Nov-18 18:45 35.075489 -119.831339 311 6510ft 137kts
08-Nov-18 18:46 35.096842 -119.873658 290 6484ft 155kts
08-Nov-18 18:47 35.106327 -119.922779 289 6495ft 159kts
08-Nov-18 18:48 35.116383 -119.976006 289 6493ft 162kts
08-Nov-18 18:49 35.126586 -120.029987 288 6176ft 165kts
08-Nov-18 18:50 35.135865 -120.083964 286 5517ft 158kts
08-Nov-18 18:51 35.144990 -120.135385 288 4886ft 152kts
08-Nov-18 18:52 35.154121 -120.184834 288 4462ft 139kts
08-Nov-18 18:53 35.162243 -120.228770 289 4241ft 135kts
08-Nov-18 18:54 35.170926 -120.275012 288 3752ft 141kts
08-Nov-18 18:55 35.179797 -120.321600 288 3394ft 130kts
08-Nov-18 18:56 35.185290 -120.365016 279 3064ft 130kts
08-Nov-18 18:57 35.186892 -120.408792 267 2662ft 127kts
08-Nov-18 18:58 35.184991 -120.450908 266 2473ft 121kts
08-Nov-18 18:59 35.190886 -120.493864 261 2097ft 132kts
08-Nov-18 19:00 35.201796 -120.535688 290 1716ft 132kts
08-Nov-18 19:01 35.209097 -120.571786 280 1161ft 95kts
08-Nov-18 19:02 35.214888 -120.600034 297 890ft 86kts
08-Nov-18 19:03 35.228459 -120.625366 306 471ft 92kts
08-Nov-18 19:04 35.239788 -120.644084 42 186ft 0kts
08-Nov-18 19:05 35.239797 -120.644066 57 186ft 0kts
08-Nov-18 19:06 35.238480 -120.641306 125 186ft 19kts
08-Nov-18 19:07 35.235972 -120.636651 105 186ft 7kts
08-Nov-18 19:08 35.236183 -120.635902 153 186ft 0kts

Navigation Log

Ident Type
Flight plan parsing failed, navigation log unavailable